Time;durP1;ratioP1;P1;durP2;ratioP2;P2;SDS_P1;SDS_P2;PMS_P1;PMS_P2;Temp;Humidity;BMP_temperature;BMP_pressure;BME280_temperature;BME280_humidity;BME280_pressure;Samples;Min_cycle;Max_cycle;Signal;HPM_P1;HPM_P2
2021/03/18 00:00:54;;;;;;;31.67;6.90;;;;;;;8.93;71.24;102315.28;5048642;28;20025;-85
2021/03/18 00:03:32;;;;;;;29.10;6.78;;;;;;;9.01;70.90;102321.16;5033368;28;20057;-84
2021/03/18 00:05:58;;;;;;;29.60;6.88;;;;;;;8.97;70.56;102310.81;5033359;28;20064;-85
2021/03/18 00:08:24;;;;;;;35.22;7.53;;;;;;;8.91;70.15;102304.00;5032937;28;20430;-84
2021/03/18 00:10:51;;;;;;;16.67;5.85;;;;;;;8.88;70.08;102298.84;5033186;28;20112;-84
2021/03/18 00:13:18;;;;;;;25.83;5.90;;;;;;;8.83;69.94;102301.63;5032814;28;20455;-85
2021/03/18 00:15:44;;;;;;;25.30;6.93;;;;;;;8.80;68.98;102303.47;5033182;28;20381;-85
2021/03/18 00:18:12;;;;;;;28.67;6.38;;;;;;;8.69;69.76;102294.16;5032738;28;20575;-85
2021/03/18 00:20:38;;;;;;;29.85;6.63;;;;;;;8.63;70.55;102294.34;5032791;28;20022;-85
2021/03/18 00:23:04;;;;;;;24.08;5.90;;;;;;;8.67;69.45;102295.97;5032871;28;20036;-85
2021/03/18 00:25:30;;;;;;;23.92;6.60;;;;;;;8.67;70.42;102301.22;5031369;28;20471;-84
2021/03/18 00:27:56;;;;;;;28.27;5.97;;;;;;;8.66;70.64;102309.09;5032633;28;20034;-85
2021/03/18 00:30:22;;;;;;;23.58;7.10;;;;;;;8.59;70.18;102305.81;5032936;28;20385;-85
2021/03/18 00:32:50;;;;;;;22.55;6.53;;;;;;;8.58;70.46;102309.34;5032504;28;20029;-85
2021/03/18 00:35:16;;;;;;;22.95;6.70;;;;;;;8.58;70.41;102298.84;5032888;28;20054;-85
2021/03/18 00:37:42;;;;;;;27.15;6.93;;;;;;;8.59;70.31;102303.22;5031276;28;20461;-85
2021/03/18 00:40:15;;;;;;;25.92;7.10;;;;;;;8.55;70.58;102304.19;5032527;28;20025;-84
2021/03/18 00:42:56;;;;;;;24.63;7.10;;;;;;;8.57;70.25;102307.63;5032657;28;20022;-85
2021/03/18 00:45:22;;;;;;;18.38;6.18;;;;;;;8.53;70.54;102308.59;5032250;28;20167;-85
2021/03/18 00:47:48;;;;;;;24.88;7.65;;;;;;;8.50;69.58;102304.31;5033047;28;20155;-85
2021/03/18 00:50:18;;;;;;;15.45;5.53;;;;;;;8.47;69.57;102306.16;5032428;28;20108;-85
2021/03/18 00:52:45;;;;;;;20.65;5.63;;;;;;;8.41;69.68;102296.75;5032608;28;20476;-84
2021/03/18 00:55:11;;;;;;;17.40;5.32;;;;;;;8.40;69.81;102291.50;5032493;28;20487;-85
2021/03/18 00:57:36;;;;;;;20.77;5.75;;;;;;;8.41;69.77;102298.44;5031756;28;20029;-84
2021/03/18 01:00:06;;;;;;;20.00;5.80;;;;;;;8.40;69.65;102287.13;5032377;28;20028;-86
2021/03/18 01:02:32;;;;;;;18.05;5.78;;;;;;;8.39;69.79;102295.03;5032428;28;20090;-85
2021/03/18 01:04:57;;;;;;;17.55;5.63;;;;;;;8.34;69.99;102282.91;5032316;28;20523;-85
2021/03/18 01:07:22;;;;;;;14.30;5.25;;;;;;;8.33;69.71;102281.22;5032385;28;20027;-85
2021/03/18 01:09:48;;;;;;;21.00;4.70;;;;;;;8.33;69.24;102281.22;5032405;28;20018;-85
2021/03/18 01:12:13;;;;;;;19.67;5.38;;;;;;;8.31;69.67;102277.78;5032387;28;20021;-85
2021/03/18 01:14:38;;;;;;;16.80;5.72;;;;;;;8.29;69.27;102274.38;5047772;28;20026;-85
2021/03/18 01:17:05;;;;;;;23.92;5.53;;;;;;;8.26;69.69;102278.81;5032800;28;20024;-85
2021/03/18 01:19:30;;;;;;;16.33;5.10;;;;;;;8.24;69.59;102275.38;5032120;28;20025;-85
2021/03/18 01:21:56;;;;;;;18.98;5.18;;;;;;;8.20;69.26;102263.28;5030701;28;20087;-85
2021/03/18 01:24:22;;;;;;;19.05;4.80;;;;;;;8.05;68.77;102267.19;5031882;28;20056;-85
2021/03/18 01:26:48;;;;;;;15.80;5.38;;;;;;;7.95;68.27;102262.19;5032565;28;20053;-84
2021/03/18 01:29:13;;;;;;;19.55;6.93;;;;;;;7.92;67.80;102269.28;5032530;28;20060;-84
2021/03/18 01:31:40;;;;;;;25.45;7.72;;;;;;;7.81;67.24;102266.09;5032286;28;20449;-85
2021/03/18 01:34:06;;;;;;;20.90;7.72;;;;;;;7.70;67.25;102275.09;5031962;28;20508;-85
2021/03/18 01:36:36;;;;;;;22.27;8.73;;;;;;;7.64;67.04;102270.03;5032235;28;20033;-85
2021/03/18 01:39:05;;;;;;;23.00;9.95;;;;;;;7.46;68.19;102260.88;5032016;28;20342;-85
2021/03/18 01:41:30;;;;;;;15.82;6.43;;;;;;;7.24;68.33;102259.69;5031796;28;20036;-85
2021/03/18 01:43:56;;;;;;;28.40;7.20;;;;;;;7.24;67.64;102255.31;5031870;28;20030;-84
2021/03/18 01:46:22;;;;;;;20.40;6.32;;;;;;;7.22;67.87;102256.25;5031821;28;20029;-85
2021/03/18 01:48:48;;;;;;;14.15;5.03;;;;;;;7.18;68.21;102254.63;5032332;28;20025;-85
2021/03/18 01:51:19;;;;;;;18.05;6.28;;;;;;;7.12;68.29;102255.63;5030623;28;20026;-85
2021/03/18 01:53:45;;;;;;;19.13;6.15;;;;;;;6.97;68.99;102251.63;5031872;28;20480;-85
2021/03/18 01:56:10;;;;;;;23.55;5.85;;;;;;;7.01;68.91;102258.50;5030304;28;20073;-85
2021/03/18 01:58:36;;;;;;;16.17;6.18;;;;;;;7.00;69.41;102254.16;5031801;28;20392;-85
2021/03/18 02:01:07;;;;;;;14.13;5.53;;;;;;;7.01;68.80;102252.41;5031730;28;20018;-85
2021/03/18 02:03:35;;;;;;;14.57;5.30;;;;;;;6.95;67.90;102245.56;5031733;28;20116;-85
2021/03/18 02:06:00;;;;;;;16.25;5.65;;;;;;;6.92;68.23;102243.88;5031735;28;20022;-85
2021/03/18 02:08:25;;;;;;;18.00;5.70;;;;;;;6.87;68.35;102237.03;5032325;28;20100;-85
2021/03/18 02:10:54;;;;;;;19.08;5.60;;;;;;;6.89;67.96;102227.44;5050965;28;20488;-85
2021/03/18 02:13:20;;;;;;;17.48;5.90;;;;;;;6.84;68.30;102229.31;5035283;28;20022;-85
2021/03/18 02:15:50;;;;;;;18.92;5.75;;;;;;;6.85;68.35;102237.09;5035408;28;20105;-85
2021/03/18 02:18:33;;;;;;;22.80;6.57;;;;;;;6.80;68.33;102233.72;5035045;28;20041;-85
2021/03/18 02:21:17;;;;;;;15.60;5.97;;;;;;;6.78;68.24;102237.28;5035149;28;20026;-85
2021/03/18 02:24:09;;;;;;;18.08;5.97;;;;;;;6.77;68.47;102232.94;5035192;28;20033;-85
2021/03/18 02:26:38;;;;;;;12.85;5.13;;;;;;;6.74;68.06;102231.25;5050268;28;20488;-85
2021/03/18 02:29:34;;;;;;;16.38;5.88;;;;;;;6.79;68.69;102241.59;5034945;28;20053;-85
2021/03/18 02:32:25;;;;;;;22.08;5.93;;;;;;;6.21;70.31;102243.72;5034790;28;20064;-84
2021/03/18 02:35:18;;;;;;;25.50;7.30;;;;;;;6.00;70.79;102245.84;5034719;28;20025;-85
2021/03/18 02:37:57;;;;;;;25.02;7.53;;;;;;;6.03;71.44;102235.34;5033539;28;20059;-85
2021/03/18 02:40:25;;;;;;;22.35;6.55;;;;;;;6.08;71.01;102243.97;5034825;28;20076;-85
2021/03/18 02:42:58;;;;;;;22.08;6.47;;;;;;;6.01;69.88;102242.34;5035356;28;20025;-84
2021/03/18 02:45:28;;;;;;;19.65;6.75;;;;;;;6.12;70.84;102239.53;5034990;28;20056;-85
2021/03/18 02:47:56;;;;;;;27.35;7.28;;;;;;;6.19;70.65;102230.69;5063082;22;20044;-87
2021/03/18 02:50:22;;;;;;;21.88;7.05;;;;;;;6.21;70.79;102243.72;5052319;28;20037;-87
2021/03/18 02:52:49;;;;;;;21.00;6.35;;;;;;;6.19;70.29;102233.31;5054303;28;20017;-86
2021/03/18 02:55:16;;;;;;;18.10;5.85;;;;;;;6.23;70.08;102237.56;5054121;28;20025;-86
2021/03/18 02:57:44;;;;;;;19.33;6.03;;;;;;;6.26;70.37;102236.63;5054228;28;20025;-87
2021/03/18 03:00:11;;;;;;;24.45;5.20;;;;;;;6.35;70.06;102237.31;5053057;28;20012;-87
2021/03/18 03:02:38;;;;;;;18.50;4.45;;;;;;;6.32;69.55;102231.31;5054226;28;20028;-87
2021/03/18 03:05:09;;;;;;;20.13;5.30;;;;;;;6.32;70.14;102226.94;5053008;28;20021;-88
2021/03/18 03:07:35;;;;;;;16.05;4.60;;;;;;;6.36;69.88;102230.34;5054164;28;20471;-87
2021/03/18 03:10:03;;;;;;;17.00;4.78;;;;;;;6.36;69.74;102232.97;5054277;28;20071;-87
2021/03/18 03:12:32;;;;;;;16.83;4.75;;;;;;;6.28;69.46;102227.03;5052837;28;20108;-86
2021/03/18 03:14:59;;;;;;;15.75;4.65;;;;;;;6.29;69.50;102221.78;5054117;28;20028;-87
2021/03/18 03:17:27;;;;;;;14.65;5.25;;;;;;;6.31;69.49;102235.66;5054335;28;20045;-87
2021/03/18 03:19:54;;;;;;;18.00;4.68;;;;;;;6.26;69.65;102228.81;5053565;28;20028;-86
2021/03/18 03:22:21;;;;;;;18.77;5.35;;;;;;;6.24;70.19;102233.19;5052504;28;20036;-87
2021/03/18 03:24:47;;;;;;;23.65;6.22;;;;;;;6.22;70.55;102217.59;5053984;28;20071;-88
2021/03/18 03:27:14;;;;;;;17.65;6.45;;;;;;;6.33;70.13;102233.88;5053866;28;20025;-88
2021/03/18 03:29:44;;;;;;;19.90;6.68;;;;;;;6.34;70.49;102230.38;5053675;28;20110;-87
2021/03/18 03:32:11;;;;;;;22.88;6.93;;;;;;;6.30;70.46;102227.84;5052548;28;20503;-88
2021/03/18 03:34:38;;;;;;;19.27;6.53;;;;;;;6.30;70.30;102233.06;5053517;28;20021;-87
2021/03/18 03:37:05;;;;;;;21.85;5.82;;;;;;;6.10;69.70;102197.84;5053559;28;20403;-88
2021/03/18 03:39:31;;;;;;;16.52;6.28;;;;;;;6.29;69.99;102227.00;5052351;28;20021;-88
2021/03/18 03:41:56;;;;;;;16.08;6.28;;;;;;;6.24;69.73;102209.72;5053795;28;20031;-88
2021/03/18 03:44:22;;;;;;;23.23;7.60;;;;;;;6.18;69.72;102210.72;5052199;28;20043;-88
2021/03/18 03:46:47;;;;;;;21.35;7.03;;;;;;;6.21;70.44;102208.03;5053930;28;20052;-88
2021/03/18 03:49:13;;;;;;;23.52;7.25;;;;;;;6.19;71.11;102201.16;5054247;28;20490;-88
2021/03/18 03:52:01;;;;;;;25.52;7.60;;;;;;;6.29;70.40;102195.69;5055344;28;20032;-88
2021/03/18 03:54:28;;;;;;;23.75;8.13;;;;;;;6.25;70.11;102199.25;5046124;28;20037;-88
2021/03/18 03:57:19;;;;;;;17.48;7.15;;;;;;;6.28;69.94;102208.75;5053207;28;20113;-87
2021/03/18 03:59:46;;;;;;;20.48;7.32;;;;;;;6.20;70.39;102214.16;5052993;28;20033;-86
2021/03/18 04:02:13;;;;;;;23.23;8.68;;;;;;;6.17;70.56;102206.41;5053060;28;20025;-87
2021/03/18 04:04:46;;;;;;;23.50;7.53;;;;;;;6.17;70.95;102206.41;5053181;28;20483;-87
2021/03/18 04:07:18;;;;;;;17.67;6.85;;;;;;;6.16;71.06;102204.66;5052958;28;20417;-87
2021/03/18 04:09:46;;;;;;;23.10;8.40;;;;;;;6.08;71.23;102201.34;5051522;28;20116;-87
2021/03/18 04:12:18;;;;;;;19.15;7.28;;;;;;;6.16;70.89;102204.66;5068385;28;20032;-86
2021/03/18 04:14:47;;;;;;;;;;;;;;;6.20;70.44;102211.56;5053127;28;20116;-88
2021/03/18 04:17:14;;;;;;;17.52;6.95;;;;;;;6.10;70.29;102212.63;5068099;28;19913;-88
2021/03/18 04:19:44;;;;;;;27.35;7.72;;;;;;;6.07;70.62;102205.72;5051555;28;20025;-87
2021/03/18 04:22:10;;;;;;;22.35;7.97;;;;;;;6.10;70.42;102216.09;5035315;28;20056;-87
2021/03/18 04:24:36;;;;;;;23.35;6.93;;;;;;;6.09;69.52;102223.94;5052591;28;20029;-86
2021/03/18 04:27:02;;;;;;;20.40;6.88;;;;;;;6.00;70.07;102218.91;5052846;28;20024;-88
2021/03/18 04:29:30;;;;;;;25.00;7.43;;;;;;;5.98;70.28;102220.69;5052502;28;20051;-87
2021/03/18 04:31:57;;;;;;;16.67;7.13;;;;;;;5.97;70.14;102214.63;5052168;28;20158;-87
2021/03/18 04:34:25;;;;;;;18.20;6.60;;;;;;;5.97;69.50;102224.19;5052357;28;20025;-87
2021/03/18 04:36:50;;;;;;;16.67;7.18;;;;;;;5.83;69.69;102227.03;5052530;28;20076;-88
2021/03/18 04:39:16;;;;;;;19.80;7.45;;;;;;;5.83;70.22;102220.06;5052199;28;20495;-88
2021/03/18 04:41:42;;;;;;;15.95;6.50;;;;;;;5.90;70.16;102236.44;5052535;28;20053;-87
2021/03/18 04:44:09;;;;;;;21.17;6.75;;;;;;;5.82;69.98;102226.16;5052305;28;20086;-87
2021/03/18 04:46:38;;;;;;;24.08;7.38;;;;;;;5.84;70.50;102224.38;5052203;28;20029;-86
2021/03/18 04:49:04;;;;;;;28.73;7.47;;;;;;;5.74;71.73;102223.69;5064989;22;20044;-88
2021/03/18 04:51:30;;;;;;;20.98;8.40;;;;;;;5.77;71.58;102233.22;5052005;28;20031;-88
2021/03/18 04:53:57;;;;;;;18.65;7.82;;;;;;;5.78;71.31;102219.28;5052027;28;20029;-88
2021/03/18 04:56:23;;;;;;;22.30;8.98;;;;;;;5.82;71.80;102214.88;5051909;28;20032;-88
2021/03/18 04:58:49;;;;;;;19.52;7.47;;;;;;;5.85;71.15;102220.06;5051718;28;20032;-88
2021/03/18 05:01:17;;;;;;;21.42;8.02;;;;;;;5.84;70.95;102223.53;5051866;28;20021;-88
2021/03/18 05:03:45;;;;;;;17.40;8.05;;;;;;;5.77;70.58;102233.22;5067202;28;20025;-88
2021/03/18 05:06:11;;;;;;;19.92;7.25;;;;;;;5.73;70.98;102227.22;5053260;28;20100;-88
2021/03/18 05:08:39;;;;;;;15.93;6.78;;;;;;;5.70;71.00;102226.41;5051917;28;20039;-88
2021/03/18 05:11:05;;;;;;;18.92;8.63;;;;;;;5.68;71.05;102212.53;5051925;28;20025;-87
2021/03/18 05:13:31;;;;;;;21.40;8.48;;;;;;;5.58;71.81;102217.06;5052032;28;20033;-88
2021/03/18 05:15:57;;;;;;;21.40;7.20;;;;;;;5.68;71.19;102216.00;5067422;28;20060;-88
2021/03/18 05:18:25;;;;;;;19.30;7.50;;;;;;;5.65;71.15;102223.88;5050587;28;20060;-88
2021/03/18 05:20:52;;;;;;;17.80;7.07;;;;;;;5.54;71.45;102215.41;5052188;28;20071;-88
2021/03/18 05:23:18;;;;;;;19.10;7.00;;;;;;;5.52;71.68;102215.41;5051939;28;20436;-88
2021/03/18 05:25:45;;;;;;;19.08;8.00;;;;;;;5.54;71.92;102216.25;5051783;28;20029;-88
2021/03/18 05:28:11;;;;;;;21.80;7.10;;;;;;;5.47;72.03;102209.44;5067289;28;20067;-87
2021/03/18 05:30:37;;;;;;;20.42;7.07;;;;;;;5.49;71.59;102212.88;5051990;28;20033;-87
2021/03/18 05:33:04;;;;;;;18.10;7.07;;;;;;;5.50;71.71;102206.78;5051807;28;20044;-88
2021/03/18 05:35:30;;;;;;;21.83;6.82;;;;;;;5.32;72.57;102210.56;5050494;28;20025;-87
2021/03/18 05:37:56;;;;;;;17.75;6.40;;;;;;;5.47;72.57;102217.25;5051726;28;20072;-87
2021/03/18 05:40:22;;;;;;;25.90;7.18;;;;;;;5.52;72.36;102218.03;5051740;28;20072;-88
2021/03/18 05:42:48;;;;;;;23.58;6.93;;;;;;;5.54;71.95;102220.59;5051841;28;20025;-88
2021/03/18 05:45:15;;;;;;;18.42;6.93;;;;;;;5.55;72.39;102214.53;5055238;28;20104;-88
2021/03/18 05:47:41;;;;;;;15.35;7.10;;;;;;;5.48;72.28;102216.34;5054280;28;20047;-88
2021/03/18 05:50:16;;;;;;;16.90;7.25;;;;;;;5.61;72.20;102211.81;5055472;28;20546;-88
2021/03/18 05:52:42;;;;;;;20.73;7.82;;;;;;;5.48;73.65;102212.91;5055493;28;20055;-87
2021/03/18 05:55:09;;;;;;;19.40;7.65;;;;;;;5.71;73.89;102215.09;5055353;28;20060;-87
2021/03/18 05:57:39;;;;;;;23.65;7.00;;;;;;;5.84;73.31;102215.72;5055783;28;20021;-87
2021/03/18 06:00:07;;;;;;;19.33;7.57;;;;;;;5.94;73.78;102209.44;5055228;28;20032;-87
2021/03/18 06:02:36;;;;;;;14.35;7.22;;;;;;;6.03;74.41;102205.81;5054201;28;20021;-87
2021/03/18 06:05:06;;;;;;;21.52;7.18;;;;;;;6.18;74.26;102213.34;5055457;28;20433;-87
2021/03/18 06:07:31;;;;;;;18.23;6.63;;;;;;;6.27;75.54;102202.69;5055236;28;20025;-87
2021/03/18 06:09:57;;;;;;;14.15;7.60;;;;;;;6.37;74.97;102205.13;5053835;28;20035;-87
2021/03/18 06:12:22;;;;;;;24.80;8.95;;;;;;;6.44;75.99;102198.88;5055077;28;20100;-88
2021/03/18 06:14:48;;;;;;;23.60;8.77;;;;;;;6.47;76.41;102204.88;5055238;28;20434;-87
2021/03/18 06:17:16;;;;;;;31.33;8.70;;;;;;;6.61;75.55;102201.94;5055238;28;20435;-88
2021/03/18 06:19:41;;;;;;;25.60;8.30;;;;;;;6.75;75.36;102197.28;5055540;28;20116;-88
2021/03/18 06:22:06;;;;;;;26.02;7.15;;;;;;;6.75;75.40;102179.03;5055126;28;20063;-88
2021/03/18 06:24:33;;;;;;;27.88;9.82;;;;;;;6.69;75.80;102178.28;5053648;28;20029;-88
2021/03/18 06:26:58;;;;;;;23.88;8.45;;;;;;;6.92;75.99;102196.03;5054883;28;20570;-88
2021/03/18 06:29:32;;;;;;;19.95;7.95;;;;;;;7.11;75.90;102192.06;5053483;28;20111;-87
2021/03/18 06:32:12;;;;;;;21.70;8.38;;;;;;;7.24;75.83;102191.75;5054971;28;20087;-88
2021/03/18 06:34:47;;;;;;;30.70;9.07;;;;;;;7.30;75.58;102197.69;5054871;28;20028;-88
2021/03/18 06:37:31;;;;;;;21.95;8.05;;;;;;;7.39;75.21;102196.59;5054767;28;20143;-88
2021/03/18 06:39:59;;;;;;;29.08;8.75;;;;;;;7.48;75.78;102196.34;5054543;28;20021;-88
2021/03/18 06:42:25;;;;;;;18.10;8.45;;;;;;;7.59;75.15;102187.38;5054825;28;20387;-88
2021/03/18 06:45:12;;;;;;;27.70;10.10;;;;;;;7.66;75.24;102181.06;5054560;28;20021;-87
2021/03/18 06:47:45;;;;;;;26.55;9.30;;;;;;;7.77;74.66;102186.88;5052628;28;20095;-87
2021/03/18 06:50:12;;;;;;;24.92;8.88;;;;;;;7.81;74.67;102182.41;5054268;28;20079;-88
2021/03/18 06:52:41;;;;;;;31.00;7.68;;;;;;;7.94;75.48;102178.56;5053415;28;20475;-88
2021/03/18 06:55:09;;;;;;;23.25;8.07;;;;;;;8.00;75.14;102167.03;5051666;28;20429;-87
2021/03/18 06:57:35;;;;;;;28.85;8.48;;;;;;;7.99;76.30;102165.34;5054041;28;20029;-87
2021/03/18 07:00:03;;;;;;;30.05;7.38;;;;;;;8.18;76.45;102165.66;5054074;28;20491;-88
2021/03/18 07:02:29;;;;;;;27.50;8.07;;;;;;;8.20;76.13;102158.63;5053518;28;20033;-87
2021/03/18 07:04:56;;;;;;;34.92;8.65;;;;;;;8.13;77.96;102163.16;5053960;28;20021;-87
2021/03/18 07:07:28;;;;;;;30.75;8.23;;;;;;;8.14;77.93;102154.44;5054198;28;20075;-88
2021/03/18 07:09:55;;;;;;;38.95;8.23;;;;;;;7.90;79.06;102150.78;5053916;28;20478;-87
2021/03/18 07:12:31;;;;;;;23.35;7.63;;;;;;;8.20;79.00;102154.25;5054002;28;20489;-88
2021/03/18 07:15:00;;;;;;;30.73;7.03;;;;;;;8.30;78.18;102155.66;5053977;28;20021;-87
2021/03/18 07:17:36;;;;;;;25.88;6.63;;;;;;;8.46;78.74;102150.00;5044062;28;20214;-87
2021/03/18 07:20:19;;;;;;;27.70;7.70;;;;;;;8.67;77.70;102143.25;5035403;28;20025;-88
2021/03/18 07:22:47;;;;;;;29.00;7.05;;;;;;;8.77;77.82;102139.41;5032623;28;20095;-87
2021/03/18 07:25:15;;;;;;;26.83;7.45;;;;;;;8.83;77.45;102143.59;5033878;28;20136;-87
2021/03/18 07:27:43;;;;;;;25.73;6.70;;;;;;;9.06;76.90;102137.56;5033829;28;20080;-88
2021/03/18 07:30:10;;;;;;;21.27;6.22;;;;;;;9.11;77.02;102136.50;5033724;28;20009;-87
2021/03/18 07:32:36;;;;;;;29.20;7.53;;;;;;;9.20;76.24;102131.84;5032217;28;20407;-87
2021/03/18 07:35:03;;;;;;;18.42;6.45;;;;;;;9.19;75.43;102132.78;5033675;28;20033;-88
2021/03/18 07:37:28;;;;;;;27.10;8.05;;;;;;;9.20;76.89;102144.97;5042724;28;20028;-88
2021/03/18 07:39:54;;;;;;;30.70;7.95;;;;;;;9.46;75.43;102150.16;5049172;28;20019;-87
2021/03/18 07:42:20;;;;;;;27.63;9.18;;;;;;;9.87;72.76;102154.81;5052888;28;20036;-88
2021/03/18 07:44:47;;;;;;;34.20;8.40;;;;;;;9.78;72.56;102142.91;5048949;28;20029;-88
2021/03/18 07:47:15;;;;;;;30.08;8.55;;;;;;;10.10;71.46;102136.44;5053036;28;20029;-88
2021/03/18 07:49:44;;;;;;;26.95;6.53;;;;;;;10.47;69.98;102131.56;5033113;28;20030;-87
2021/03/18 07:52:20;;;;;;;27.08;7.85;;;;;;;11.09;67.60;102133.34;5034696;28;20080;-88
2021/03/18 07:54:50;;;;;;;22.15;6.55;;;;;;;11.46;65.37;102126.50;5053167;28;20032;-88
2021/03/18 07:57:17;;;;;;;23.05;6.28;;;;;;;11.53;63.20;102124.44;5049274;28;20445;-87
2021/03/18 07:59:43;;;;;;;22.25;5.93;;;;;;;12.00;62.82;102131.16;5050038;28;20029;-87
2021/03/18 08:02:11;;;;;;;29.20;6.03;;;;;;;11.99;62.39;102124.19;5050480;28;20498;-88
2021/03/18 08:04:42;;;;;;;20.60;5.70;;;;;;;12.45;60.99;102116.72;5051437;28;20119;-87
2021/03/18 08:07:07;;;;;;;20.42;6.15;;;;;;;13.32;58.14;102121.22;5066362;28;20049;-88
2021/03/18 08:09:32;;;;;;;24.67;6.65;;;;;;;14.03;56.11;102118.28;5049625;28;20036;-88
2021/03/18 08:11:58;;;;;;;24.00;5.32;;;;;;;13.47;56.49;102113.34;5051813;28;20483;-88
2021/03/18 08:14:24;;;;;;;20.52;5.53;;;;;;;13.87;54.58;102105.91;5051838;28;20036;-87
2021/03/18 08:16:51;;;;;;;22.67;5.30;;;;;;;13.27;55.33;102111.72;5059967;28;20415;-88
2021/03/18 08:19:19;;;;;;;26.13;5.22;;;;;;;12.93;56.69;102106.47;5056521;22;20411;-90
2021/03/18 08:21:53;;;;;;;20.85;5.70;;;;;;;12.78;57.12;102111.59;5032309;28;20472;-92
2021/03/18 08:24:21;;;;;;;18.02;5.25;;;;;;;12.91;56.85;102103.91;5031999;28;20059;-90
2021/03/18 08:26:51;;;;;;;20.38;5.35;;;;;;;12.87;57.20;102099.72;5031445;28;20112;-91
2021/03/18 08:29:23;;;;;;;16.92;4.90;;;;;;;12.74;57.52;102096.84;5017437;28;20148;-92
2021/03/18 08:31:50;;;;;;;;;;;;;;;12.68;58.67;102105.91;5013380;28;20025;-90
2021/03/18 08:34:19;;;;;;;29.25;5.28;;;;;;;12.75;57.79;102100.34;5011922;28;19935;-91
2021/03/18 08:36:50;;;;;;;18.52;4.65;;;;;;;13.06;56.52;102095.22;5007374;28;20030;-93
2021/03/18 08:39:45;;;;;;;25.30;5.75;;;;;;;12.42;57.55;102101.06;5001462;28;20022;-96
2021/03/18 08:42:29;;;;;;;20.30;5.25;;;;;;;11.80;58.70;102098.66;5012189;28;20061;-96
2021/03/18 08:44:57;;;;;;;19.95;4.97;;;;;;;12.29;57.84;102095.53;5016199;28;20034;-96
2021/03/18 08:47:38;;;;;;;26.55;6.60;;;;;;;12.28;57.69;102089.44;5007891;28;20026;-95
2021/03/18 08:50:14;;;;;;;21.95;5.15;;;;;;;12.35;57.68;102099.66;5026512;28;20033;-95
2021/03/18 08:52:44;;;;;;;30.13;5.97;;;;;;;11.75;60.02;102100.69;4994917;28;20049;-94
2021/03/18 08:55:12;;;;;;;17.23;5.70;;;;;;;12.12;58.06;102103.41;5002054;28;20034;-96
2021/03/18 08:57:39;;;;;;;23.33;5.63;;;;;;;12.45;56.95;102098.28;5004313;28;20176;-95
2021/03/18 09:00:04;;;;;;;29.65;5.50;;;;;;;12.63;56.47;102101.81;5016170;28;20025;-94
2021/03/18 09:02:32;;;;;;;19.70;6.03;;;;;;;12.05;59.05;102093.16;5013375;28;20052;-94
2021/03/18 09:04:59;;;;;;;20.63;6.13;;;;;;;12.34;57.46;102088.25;5019362;28;20034;-96
2021/03/18 09:07:30;;;;;;;23.13;6.25;;;;;;;12.57;57.32;102100.31;5015807;28;20026;-95
2021/03/18 09:10:06;;;;;;;26.88;7.03;;;;;;;12.65;57.72;102097.31;5017467;28;20443;-96
2021/03/18 09:12:58;;;;;;;22.27;4.82;;;;;;;13.25;56.15;102091.59;5003466;28;20366;-96
2021/03/18 09:15:36;;;;;;;21.88;5.10;;;;;;;13.52;54.94;102085.84;5013971;28;20052;-95
2021/03/18 09:18:22;;;;;;;16.80;4.97;;;;;;;13.76;54.78;102078.38;5004038;28;20030;-95
2021/03/18 09:20:50;;;;;;;22.63;5.70;;;;;;;13.84;54.17;102084.09;5009593;28;20129;-95
2021/03/18 09:23:18;;;;;;;18.15;5.68;;;;;;;13.71;53.79;102083.09;5011543;28;20018;-96
2021/03/18 09:25:46;;;;;;;18.63;5.07;;;;;;;13.26;55.01;102075.69;4999521;28;20018;-95
2021/03/18 09:28:13;;;;;;;15.00;4.65;;;;;;;13.43;54.20;102080.13;5004524;28;20045;-96
2021/03/18 09:30:45;;;;;;;22.25;6.10;;;;;;;13.32;54.07;102082.47;5014316;28;20076;-96
2021/03/18 09:33:27;;;;;;;23.80;5.97;;;;;;;13.02;55.83;102083.13;4999245;28;20034;-96
2021/03/18 09:35:55;;;;;;;24.02;6.60;;;;;;;13.12;54.86;102086.13;4998429;28;20468;-96
2021/03/18 09:38:30;;;;;;;24.80;6.93;;;;;;;12.95;55.21;102084.34;5122165;23;20048;-96
2021/03/18 09:40:59;;;;;;;21.70;5.65;;;;;;;12.30;57.57;102074.41;5103252;22;20049;-96
2021/03/18 09:43:25;;;;;;;23.42;5.90;;;;;;;12.10;58.69;102074.50;5053173;28;20048;-96
2021/03/18 09:46:04;;;;;;;21.05;6.47;;;;;;;12.81;57.02;102087.69;5053527;28;20017;-96
2021/03/18 09:48:31;;;;;;;20.27;5.90;;;;;;;12.58;57.24;102082.72;5053325;28;20025;-94
2021/03/18 09:51:15;;;;;;;19.48;6.10;;;;;;;12.53;58.41;102085.59;5049608;28;20028;-96
2021/03/18 09:53:45;;;;;;;25.33;6.80;;;;;;;12.57;57.47;102087.13;5035220;28;20044;-96
2021/03/18 09:56:13;;;;;;;18.05;6.18;;;;;;;12.65;57.31;102082.34;5053750;28;20112;-96
2021/03/18 09:58:41;;;;;;;21.45;6.20;;;;;;;12.60;57.28;102080.84;5052398;28;20021;-96
2021/03/18 10:01:15;;;;;;;19.08;5.35;;;;;;;12.96;56.09;102078.16;5052843;28;20032;-94
2021/03/18 10:03:54;;;;;;;21.02;6.20;;;;;;;13.09;56.06;102078.38;5054375;28;20044;-95
2021/03/18 10:06:28;;;;;;;24.55;5.75;;;;;;;12.72;57.34;102074.13;5040486;28;20376;-94
2021/03/18 10:09:12;;;;;;;27.35;7.60;;;;;;;12.62;57.75;102069.34;5033889;28;20021;-95
2021/03/18 10:11:38;;;;;;;21.20;4.30;;;;;;;12.47;56.74;102059.56;5049934;28;20040;-96
2021/03/18 10:14:04;;;;;;;16.73;5.35;;;;;;;12.26;56.89;102067.59;5051891;28;20021;-95
2021/03/18 10:16:29;;;;;;;20.10;5.55;;;;;;;11.89;57.68;102066.69;5054542;28;20028;-95
2021/03/18 10:18:55;;;;;;;19.17;4.68;;;;;;;12.70;56.15;102058.41;5060576;22;20407;-86
2021/03/18 10:21:20;;;;;;;20.65;4.95;;;;;;;12.60;55.64;102054.50;5046447;28;20104;-87
2021/03/18 10:23:48;;;;;;;23.75;4.90;;;;;;;12.86;56.39;102058.47;5051254;28;20463;-86
2021/03/18 10:26:24;;;;;;;17.55;4.35;;;;;;;13.15;54.80;102043.78;5050752;28;20021;-86
2021/03/18 10:29:16;;;;;;;23.25;4.57;;;;;;;12.20;57.27;102059.97;5032240;28;20111;-87
2021/03/18 10:31:41;;;;;;;17.88;4.72;;;;;;;12.61;55.94;102054.44;5029539;28;20042;-86
2021/03/18 10:34:26;;;;;;;21.58;5.60;;;;;;;12.47;56.92;102063.03;5035882;28;20030;-86
2021/03/18 10:36:52;;;;;;;20.85;4.85;;;;;;;12.86;55.98;102058.47;5034034;28;20048;-86
2021/03/18 10:39:22;;;;;;;22.50;5.28;;;;;;;12.30;57.36;102047.19;5032837;28;20029;-87
2021/03/18 10:41:59;;;;;;;26.65;5.68;;;;;;;12.80;56.73;102048.25;5033697;28;20032;-86
2021/03/18 10:44:37;;;;;;;17.70;4.32;;;;;;;12.90;56.41;102039.78;5034548;28;20029;-86
2021/03/18 10:47:20;;;;;;;18.13;5.57;;;;;;;12.60;56.36;102031.66;5034442;28;20029;-86
2021/03/18 10:50:04;;;;;;;22.23;5.72;;;;;;;12.38;57.40;102031.00;5034656;28;20544;-86
2021/03/18 10:52:30;;;;;;;20.45;5.13;;;;;;;13.08;55.04;102032.69;5034585;28;20517;-86
2021/03/18 10:54:56;;;;;;;19.50;4.03;;;;;;;13.45;54.10;102037.84;5030484;28;20389;-86
2021/03/18 10:57:22;;;;;;;18.13;4.85;;;;;;;13.49;53.83;102028.81;5027712;28;20475;-86
2021/03/18 10:59:58;;;;;;;17.30;4.80;;;;;;;13.51;53.60;102026.06;5034379;28;20084;-87
2021/03/18 11:02:29;;;;;;;19.33;5.57;;;;;;;13.49;53.93;102031.47;5026631;28;20030;-87
2021/03/18 11:04:59;;;;;;;24.60;5.73;;;;;;;13.25;54.61;102013.34;5022862;28;20064;-87
2021/03/18 11:07:29;;;;;;;17.00;4.22;;;;;;;13.66;53.95;102025.25;5034791;28;20273;-86
2021/03/18 11:10:14;;;;;;;15.43;4.90;;;;;;;13.97;54.23;102020.91;5034920;28;20030;-86
2021/03/18 11:12:40;;;;;;;14.50;4.60;;;;;;;13.98;53.68;102022.59;5021381;28;20108;-87
2021/03/18 11:15:08;;;;;;;17.52;4.88;;;;;;;14.66;51.90;102028.34;5035331;28;20063;-86
2021/03/18 11:17:34;;;;;;;23.55;4.45;;;;;;;14.32;52.83;102026.81;5034203;28;20021;-86
2021/03/18 11:20:14;;;;;;;19.23;4.30;;;;;;;14.75;51.88;102029.63;5032437;28;20013;-86
2021/03/18 11:22:40;;;;;;;14.65;4.18;;;;;;;15.24;50.96;102020.47;5020836;28;20480;-87
2021/03/18 11:25:07;;;;;;;15.63;4.05;;;;;;;14.85;51.81;102024.63;5017510;28;20034;-88
2021/03/18 11:27:33;;;;;;;21.30;4.75;;;;;;;15.02;51.22;102021.78;5024171;28;20026;-87
2021/03/18 11:29:59;;;;;;;20.48;4.70;;;;;;;15.32;51.51;102010.25;5024610;28;20387;-87
2021/03/18 11:32:26;;;;;;;20.50;5.13;;;;;;;15.35;51.12;102007.41;5026162;28;20025;-87
2021/03/18 11:34:57;;;;;;;14.25;4.32;;;;;;;15.50;50.77;102010.91;5022013;28;20029;-87